sensor_id;sensor_type;location;lat;lon;timestamp;pressure;altitude;pressure_sealevel;temperature;humidity
7930;BME280;4010;42.698;23.124;2023-02-11T00:01:48;118349.16;;;-140.64;87.97
7930;BME280;4010;42.698;23.124;2023-02-11T00:04:15;118349.16;;;-140.64;87.56
7930;BME280;4010;42.698;23.124;2023-02-11T00:06:42;118349.16;;;-140.64;87.78
7930;BME280;4010;42.698;23.124;2023-02-11T00:09:09;118349.16;;;-140.64;87.38
7930;BME280;4010;42.698;23.124;2023-02-11T00:11:37;118349.16;;;-140.64;86.90
7930;BME280;4010;42.698;23.124;2023-02-11T00:14:05;118349.16;;;-140.64;86.89
7930;BME280;4010;42.698;23.124;2023-02-11T00:16:32;118349.16;;;-140.64;87.13
7930;BME280;4010;42.698;23.124;2023-02-11T00:18:59;118349.16;;;-140.64;87.04
7930;BME280;4010;42.698;23.124;2023-02-11T00:21:26;118349.16;;;-140.64;87.41
7930;BME280;4010;42.698;23.124;2023-02-11T00:23:54;118349.16;;;-140.64;87.22
7930;BME280;4010;42.698;23.124;2023-02-11T00:26:23;118349.16;;;-140.64;86.85
7930;BME280;4010;42.698;23.124;2023-02-11T00:28:52;118349.16;;;-140.64;86.95
7930;BME280;4010;42.698;23.124;2023-02-11T00:31:20;118349.16;;;-140.64;87.05
7930;BME280;4010;42.698;23.124;2023-02-11T00:33:47;118349.16;;;-140.64;86.75
7930;BME280;4010;42.698;23.124;2023-02-11T00:36:16;118349.16;;;-140.64;86.94
7930;BME280;4010;42.698;23.124;2023-02-11T00:38:44;118349.16;;;-140.64;86.50
7930;BME280;4010;42.698;23.124;2023-02-11T00:41:12;118349.16;;;-140.64;86.59
7930;BME280;4010;42.698;23.124;2023-02-11T00:43:39;118349.16;;;-140.64;86.59
7930;BME280;4010;42.698;23.124;2023-02-11T00:46:08;118349.16;;;-140.64;86.54
7930;BME280;4010;42.698;23.124;2023-02-11T00:48:35;118349.16;;;-140.64;86.61
7930;BME280;4010;42.698;23.124;2023-02-11T00:51:02;118349.16;;;-140.64;86.57
7930;BME280;4010;42.698;23.124;2023-02-11T00:53:30;118349.16;;;-140.64;86.72
7930;BME280;4010;42.698;23.124;2023-02-11T00:55:56;118349.16;;;-140.64;86.94
7930;BME280;4010;42.698;23.124;2023-02-11T00:58:23;118349.16;;;-140.64;87.22
7930;BME280;4010;42.698;23.124;2023-02-11T01:00:50;118349.16;;;-140.64;87.55
7930;BME280;4010;42.698;23.124;2023-02-11T01:03:19;118349.16;;;-140.64;87.77
7930;BME280;4010;42.698;23.124;2023-02-11T01:05:45;118349.16;;;-140.64;88.09
7930;BME280;4010;42.698;23.124;2023-02-11T01:08:12;118349.16;;;-140.64;87.61
7930;BME280;4010;42.698;23.124;2023-02-11T01:10:39;118349.16;;;-140.64;87.83
7930;BME280;4010;42.698;23.124;2023-02-11T01:13:06;118349.16;;;-140.64;87.43
7930;BME280;4010;42.698;23.124;2023-02-11T01:15:32;118349.16;;;-140.64;86.92
7930;BME280;4010;42.698;23.124;2023-02-11T01:17:59;118349.16;;;-140.64;87.17
7930;BME280;4010;42.698;23.124;2023-02-11T01:20:27;118349.16;;;-140.64;87.03
7930;BME280;4010;42.698;23.124;2023-02-11T01:22:54;118349.16;;;-140.64;87.67
7930;BME280;4010;42.698;23.124;2023-02-11T01:25:21;118349.16;;;-140.64;87.85
7930;BME280;4010;42.698;23.124;2023-02-11T01:27:48;118349.16;;;-140.64;87.34
7930;BME280;4010;42.698;23.124;2023-02-11T01:30:14;118349.16;;;-140.64;87.52
7930;BME280;4010;42.698;23.124;2023-02-11T01:32:41;118349.16;;;-140.64;87.48
7930;BME280;4010;42.698;23.124;2023-02-11T01:35:08;118349.16;;;-140.64;87.61
7930;BME280;4010;42.698;23.124;2023-02-11T01:37:36;118349.16;;;-140.64;87.34
7930;BME280;4010;42.698;23.124;2023-02-11T01:40:03;118349.16;;;-140.64;86.82
7930;BME280;4010;42.698;23.124;2023-02-11T01:42:31;118349.16;;;-140.64;87.16
7930;BME280;4010;42.698;23.124;2023-02-11T01:44:59;118349.16;;;-140.64;87.38
7930;BME280;4010;42.698;23.124;2023-02-11T01:47:26;118349.16;;;-140.64;87.35
7930;BME280;4010;42.698;23.124;2023-02-11T01:49:56;118349.16;;;-140.64;87.14
7930;BME280;4010;42.698;23.124;2023-02-11T01:52:26;118349.16;;;-140.64;86.64
7930;BME280;4010;42.698;23.124;2023-02-11T01:54:59;118349.16;;;-140.64;86.36
7930;BME280;4010;42.698;23.124;2023-02-11T01:57:47;118349.16;;;-140.64;85.79
7930;BME280;4010;42.698;23.124;2023-02-11T02:00:17;118349.16;;;-140.64;84.72
7930;BME280;4010;42.698;23.124;2023-02-11T02:02:51;118349.16;;;-140.64;84.67
7930;BME280;4010;42.698;23.124;2023-02-11T02:05:23;118349.16;;;-140.64;84.75
7930;BME280;4010;42.698;23.124;2023-02-11T02:07:59;118349.16;;;-140.64;85.56
7930;BME280;4010;42.698;23.124;2023-02-11T02:10:31;118349.16;;;-140.64;85.66
7930;BME280;4010;42.698;23.124;2023-02-11T02:12:59;118349.16;;;-140.64;85.76
7930;BME280;4010;42.698;23.124;2023-02-11T02:15:28;118349.16;;;-140.64;85.95
7930;BME280;4010;42.698;23.124;2023-02-11T02:18:22;118349.16;;;-140.64;85.79
7930;BME280;4010;42.698;23.124;2023-02-11T02:30:15;118349.16;;;-140.64;86.28
7930;BME280;4010;42.698;23.124;2023-02-11T02:35:44;118349.16;;;-140.64;86.66
7930;BME280;4010;42.698;23.124;2023-02-11T02:38:15;118349.16;;;-140.64;86.84
7930;BME280;4010;42.698;23.124;2023-02-11T02:40:46;118349.16;;;-140.64;86.74
7930;BME280;4010;42.698;23.124;2023-02-11T02:43:15;118349.16;;;-140.64;86.57
7930;BME280;4010;42.698;23.124;2023-02-11T02:45:42;118349.16;;;-140.64;86.49
7930;BME280;4010;42.698;23.124;2023-02-11T02:48:24;118349.16;;;-140.64;86.37
7930;BME280;4010;42.698;23.124;2023-02-11T02:51:10;118349.16;;;-140.64;86.04
7930;BME280;4010;42.698;23.124;2023-02-11T02:53:46;118349.16;;;-140.64;84.92
7930;BME280;4010;42.698;23.124;2023-02-11T02:56:26;118349.16;;;-140.64;85.81
7930;BME280;4010;42.698;23.124;2023-02-11T02:59:09;118349.16;;;-140.64;84.92
7930;BME280;4010;42.698;23.124;2023-02-11T03:01:46;118349.16;;;-140.64;85.04
7930;BME280;4010;42.698;23.124;2023-02-11T03:04:20;118349.16;;;-140.64;85.26
7930;BME280;4010;42.698;23.124;2023-02-11T03:06:54;118349.16;;;-140.64;85.23
7930;BME280;4010;42.698;23.124;2023-02-11T03:09:26;118349.16;;;-140.64;85.59
7930;BME280;4010;42.698;23.124;2023-02-11T03:11:55;118349.16;;;-140.64;85.92
7930;BME280;4010;42.698;23.124;2023-02-11T03:14:23;118349.16;;;-140.64;85.66
7930;BME280;4010;42.698;23.124;2023-02-11T03:16:53;118349.16;;;-140.64;85.87
7930;BME280;4010;42.698;23.124;2023-02-11T03:19:25;118349.16;;;-140.64;86.64
7930;BME280;4010;42.698;23.124;2023-02-11T03:21:55;118349.16;;;-140.64;86.63
7930;BME280;4010;42.698;23.124;2023-02-11T03:24:26;118349.16;;;-140.64;86.73
7930;BME280;4010;42.698;23.124;2023-02-11T03:26:57;118349.16;;;-140.64;86.47
7930;BME280;4010;42.698;23.124;2023-02-11T03:29:30;118349.16;;;-140.64;86.26
7930;BME280;4010;42.698;23.124;2023-02-11T03:32:03;118349.16;;;-140.64;85.83
7930;BME280;4010;42.698;23.124;2023-02-11T03:34:37;118349.16;;;-140.64;85.94
7930;BME280;4010;42.698;23.124;2023-02-11T03:37:09;118349.16;;;-140.64;86.29
7930;BME280;4010;42.698;23.124;2023-02-11T03:39:42;118349.16;;;-140.64;86.08
7930;BME280;4010;42.698;23.124;2023-02-11T03:42:12;118349.16;;;-140.64;85.23
7930;BME280;4010;42.698;23.124;2023-02-11T03:44:51;118349.16;;;-140.64;86.03
7930;BME280;4010;42.698;23.124;2023-02-11T03:47:22;118349.16;;;-140.64;86.21
7930;BME280;4010;42.698;23.124;2023-02-11T03:49:53;118349.16;;;-140.64;85.95
7930;BME280;4010;42.698;23.124;2023-02-11T03:52:23;118349.16;;;-140.64;86.17
7930;BME280;4010;42.698;23.124;2023-02-11T03:54:54;118349.16;;;-140.64;85.75
7930;BME280;4010;42.698;23.124;2023-02-11T03:57:22;118349.16;;;-140.64;84.90
7930;BME280;4010;42.698;23.124;2023-02-11T03:59:53;118349.16;;;-140.64;84.48
7930;BME280;4010;42.698;23.124;2023-02-11T04:02:21;118349.16;;;-140.64;84.65
7930;BME280;4010;42.698;23.124;2023-02-11T04:04:48;118349.16;;;-140.64;84.70
7930;BME280;4010;42.698;23.124;2023-02-11T04:07:16;118349.16;;;-140.64;84.83
7930;BME280;4010;42.698;23.124;2023-02-11T04:09:43;118349.16;;;-140.64;84.64
7930;BME280;4010;42.698;23.124;2023-02-11T04:12:09;118349.16;;;-140.64;84.78
7930;BME280;4010;42.698;23.124;2023-02-11T04:14:36;118349.16;;;-140.64;84.79
7930;BME280;4010;42.698;23.124;2023-02-11T04:17:03;118349.16;;;-140.64;84.95
7930;BME280;4010;42.698;23.124;2023-02-11T04:19:30;118349.16;;;-140.64;85.25
7930;BME280;4010;42.698;23.124;2023-02-11T04:21:57;118349.16;;;-140.64;85.26
7930;BME280;4010;42.698;23.124;2023-02-11T04:24:25;118349.16;;;-140.64;85.11
7930;BME280;4010;42.698;23.124;2023-02-11T04:26:52;118349.16;;;-140.64;85.14
7930;BME280;4010;42.698;23.124;2023-02-11T04:29:18;118349.16;;;-140.64;85.30
7930;BME280;4010;42.698;23.124;2023-02-11T04:31:45;118349.16;;;-140.64;85.11
7930;BME280;4010;42.698;23.124;2023-02-11T04:34:12;118349.16;;;-140.64;85.01
7930;BME280;4010;42.698;23.124;2023-02-11T04:36:39;118349.16;;;-140.64;85.21
7930;BME280;4010;42.698;23.124;2023-02-11T04:39:06;118349.16;;;-140.64;84.53
7930;BME280;4010;42.698;23.124;2023-02-11T04:41:34;118349.16;;;-140.64;85.42
7930;BME280;4010;42.698;23.124;2023-02-11T04:44:01;118349.16;;;-140.64;85.13
7930;BME280;4010;42.698;23.124;2023-02-11T04:46:27;118349.16;;;-140.64;85.44
7930;BME280;4010;42.698;23.124;2023-02-11T04:48:55;118349.16;;;-140.64;85.51
7930;BME280;4010;42.698;23.124;2023-02-11T04:51:21;118349.16;;;-140.64;86.64
7930;BME280;4010;42.698;23.124;2023-02-11T04:53:48;118349.16;;;-140.64;86.31
7930;BME280;4010;42.698;23.124;2023-02-11T04:56:15;118349.16;;;-140.64;86.23
7930;BME280;4010;42.698;23.124;2023-02-11T04:58:43;118349.16;;;-140.64;86.78
7930;BME280;4010;42.698;23.124;2023-02-11T05:01:12;118349.16;;;-140.64;86.63
7930;BME280;4010;42.698;23.124;2023-02-11T05:03:39;118349.16;;;-140.64;86.82
7930;BME280;4010;42.698;23.124;2023-02-11T05:06:06;118349.16;;;-140.64;86.24
7930;BME280;4010;42.698;23.124;2023-02-11T05:08:33;118349.16;;;-140.64;85.83
7930;BME280;4010;42.698;23.124;2023-02-11T05:10:59;118349.16;;;-140.64;86.44
7930;BME280;4010;42.698;23.124;2023-02-11T05:13:26;118349.16;;;-140.64;86.40
7930;BME280;4010;42.698;23.124;2023-02-11T05:15:54;118349.16;;;-140.64;87.17
7930;BME280;4010;42.698;23.124;2023-02-11T05:18:21;118349.16;;;-140.64;87.59
7930;BME280;4010;42.698;23.124;2023-02-11T05:20:48;118349.16;;;-140.64;87.41
7930;BME280;4010;42.698;23.124;2023-02-11T05:23:15;118349.16;;;-140.64;88.01
7930;BME280;4010;42.698;23.124;2023-02-11T05:25:41;118349.16;;;-140.64;87.59
7930;BME280;4010;42.698;23.124;2023-02-11T05:28:08;118349.16;;;-140.64;88.25
7930;BME280;4010;42.698;23.124;2023-02-11T05:30:35;118349.16;;;-140.64;88.83
7930;BME280;4010;42.698;23.124;2023-02-11T05:33:03;118349.16;;;-140.64;88.54
7930;BME280;4010;42.698;23.124;2023-02-11T05:35:29;118349.16;;;-140.64;88.37
7930;BME280;4010;42.698;23.124;2023-02-11T05:37:56;118349.16;;;-140.64;88.84
7930;BME280;4010;42.698;23.124;2023-02-11T05:40:23;118349.16;;;-140.64;88.53
7930;BME280;4010;42.698;23.124;2023-02-11T05:42:49;118349.16;;;-140.64;88.53
7930;BME280;4010;42.698;23.124;2023-02-11T05:45:16;118349.16;;;-140.64;88.83
7930;BME280;4010;42.698;23.124;2023-02-11T05:47:43;118349.16;;;-140.64;88.94
7930;BME280;4010;42.698;23.124;2023-02-11T05:50:11;118349.16;;;-140.64;88.41
7930;BME280;4010;42.698;23.124;2023-02-11T05:52:37;118349.16;;;-140.64;88.62
7930;BME280;4010;42.698;23.124;2023-02-11T05:55:05;118349.16;;;-140.64;88.37
7930;BME280;4010;42.698;23.124;2023-02-11T05:57:31;118349.16;;;-140.64;88.60
7930;BME280;4010;42.698;23.124;2023-02-11T05:59:58;118349.16;;;-140.64;88.37
7930;BME280;4010;42.698;23.124;2023-02-11T06:02:25;118349.16;;;-140.64;88.51
7930;BME280;4010;42.698;23.124;2023-02-11T06:04:51;118349.16;;;-140.64;88.02
7930;BME280;4010;42.698;23.124;2023-02-11T06:07:19;118349.16;;;-140.64;87.36
7930;BME280;4010;42.698;23.124;2023-02-11T06:09:47;118349.16;;;-140.64;87.48
7930;BME280;4010;42.698;23.124;2023-02-11T06:12:14;118349.16;;;-140.64;87.22
7930;BME280;4010;42.698;23.124;2023-02-11T06:14:41;118349.16;;;-140.64;86.51
7930;BME280;4010;42.698;23.124;2023-02-11T06:17:08;118349.16;;;-140.64;86.22
7930;BME280;4010;42.698;23.124;2023-02-11T06:19:35;118349.16;;;-140.64;85.68
7930;BME280;4010;42.698;23.124;2023-02-11T06:22:02;118349.16;;;-140.64;84.77
7930;BME280;4010;42.698;23.124;2023-02-11T06:24:30;118349.16;;;-140.64;84.69
7930;BME280;4010;42.698;23.124;2023-02-11T06:26:57;118349.16;;;-140.64;82.99
7930;BME280;4010;42.698;23.124;2023-02-11T06:29:24;118349.16;;;-140.64;82.41
7930;BME280;4010;42.698;23.124;2023-02-11T06:31:50;118349.16;;;-140.64;81.11
7930;BME280;4010;42.698;23.124;2023-02-11T06:34:17;118349.16;;;-140.64;80.67
7930;BME280;4010;42.698;23.124;2023-02-11T06:36:44;118349.16;;;-140.64;79.65
7930;BME280;4010;42.698;23.124;2023-02-11T06:39:11;118349.16;;;-140.64;79.24
7930;BME280;4010;42.698;23.124;2023-02-11T06:41:40;118349.16;;;-140.64;77.77
7930;BME280;4010;42.698;23.124;2023-02-11T06:44:06;118349.16;;;-140.64;76.99
7930;BME280;4010;42.698;23.124;2023-02-11T06:46:33;118349.16;;;-140.64;76.35
7930;BME280;4010;42.698;23.124;2023-02-11T06:49:00;118349.16;;;-140.64;75.24
7930;BME280;4010;42.698;23.124;2023-02-11T06:51:26;118349.16;;;-140.64;74.22
7930;BME280;4010;42.698;23.124;2023-02-11T06:53:53;118349.16;;;-140.64;74.22
7930;BME280;4010;42.698;23.124;2023-02-11T06:56:22;118349.16;;;-140.64;73.47
7930;BME280;4010;42.698;23.124;2023-02-11T06:58:53;118349.16;;;-140.64;73.39
7930;BME280;4010;42.698;23.124;2023-02-11T07:01:20;118349.16;;;-140.64;73.06
7930;BME280;4010;42.698;23.124;2023-02-11T07:03:48;118349.16;;;-140.64;73.42
7930;BME280;4010;42.698;23.124;2023-02-11T07:06:16;118349.16;;;-140.64;72.86
7930;BME280;4010;42.698;23.124;2023-02-11T07:08:44;118349.16;;;-140.64;73.86
7930;BME280;4010;42.698;23.124;2023-02-11T07:11:13;118349.16;;;-140.64;72.99
7930;BME280;4010;42.698;23.124;2023-02-11T07:13:40;118349.16;;;-140.64;72.64
7930;BME280;4010;42.698;23.124;2023-02-11T07:16:11;118349.16;;;-140.64;72.76
7930;BME280;4010;42.698;23.124;2023-02-11T07:18:38;118349.16;;;-140.64;72.05
7930;BME280;4010;42.698;23.124;2023-02-11T07:21:06;118349.16;;;-140.64;72.23
7930;BME280;4010;42.698;23.124;2023-02-11T07:23:33;118349.16;;;-140.64;70.76
7930;BME280;4010;42.698;23.124;2023-02-11T07:26:02;118349.16;;;-140.64;70.80
7930;BME280;4010;42.698;23.124;2023-02-11T07:28:29;118349.16;;;-140.64;69.63
7930;BME280;4010;42.698;23.124;2023-02-11T07:30:56;118349.16;;;-140.64;69.78
7930;BME280;4010;42.698;23.124;2023-02-11T07:33:24;118349.16;;;-140.64;69.67
7930;BME280;4010;42.698;23.124;2023-02-11T07:35:51;118349.16;;;-140.64;69.06
7930;BME280;4010;42.698;23.124;2023-02-11T07:38:17;118349.16;;;-140.64;68.47
7930;BME280;4010;42.698;23.124;2023-02-11T07:40:44;118349.16;;;-140.64;67.56
7930;BME280;4010;42.698;23.124;2023-02-11T07:43:10;118349.16;;;-140.64;65.61
7930;BME280;4010;42.698;23.124;2023-02-11T07:45:37;118349.16;;;-140.64;64.54
7930;BME280;4010;42.698;23.124;2023-02-11T07:48:04;118349.16;;;-140.64;64.75
7930;BME280;4010;42.698;23.124;2023-02-11T07:50:32;118349.16;;;-140.64;64.29
7930;BME280;4010;42.698;23.124;2023-02-11T07:52:59;118349.16;;;-140.64;64.33
7930;BME280;4010;42.698;23.124;2023-02-11T07:55:26;118349.16;;;-140.64;62.69
7930;BME280;4010;42.698;23.124;2023-02-11T07:57:52;118349.16;;;-140.64;60.97
7930;BME280;4010;42.698;23.124;2023-02-11T08:00:19;118349.16;;;-140.64;61.02
7930;BME280;4010;42.698;23.124;2023-02-11T08:02:46;118349.16;;;-140.64;61.16
7930;BME280;4010;42.698;23.124;2023-02-11T08:05:12;118349.16;;;-140.64;58.76
7930;BME280;4010;42.698;23.124;2023-02-11T08:07:40;118349.16;;;-140.64;58.95
7930;BME280;4010;42.698;23.124;2023-02-11T08:10:07;118349.16;;;-140.64;58.66
7930;BME280;4010;42.698;23.124;2023-02-11T08:12:34;118349.16;;;-140.64;58.03
7930;BME280;4010;42.698;23.124;2023-02-11T08:15:01;118349.16;;;-140.64;58.94
7930;BME280;4010;42.698;23.124;2023-02-11T08:17:27;118349.16;;;-140.64;59.73
7930;BME280;4010;42.698;23.124;2023-02-11T08:19:55;118349.16;;;-140.64;58.82
7930;BME280;4010;42.698;23.124;2023-02-11T08:22:22;118349.16;;;-140.64;60.15
7930;BME280;4010;42.698;23.124;2023-02-11T08:24:50;118349.16;;;-140.64;58.50
7930;BME280;4010;42.698;23.124;2023-02-11T08:27:17;118349.16;;;-140.64;59.70
7930;BME280;4010;42.698;23.124;2023-02-11T08:29:43;118349.16;;;-140.64;58.11
7930;BME280;4010;42.698;23.124;2023-02-11T08:32:10;118349.16;;;-140.64;58.63
7930;BME280;4010;42.698;23.124;2023-02-11T08:34:36;118349.16;;;-140.64;57.54
7930;BME280;4010;42.698;23.124;2023-02-11T08:37:03;118349.16;;;-140.64;54.91
7930;BME280;4010;42.698;23.124;2023-02-11T08:39:30;118349.16;;;-140.64;55.14
7930;BME280;4010;42.698;23.124;2023-02-11T08:41:58;118349.16;;;-140.64;54.87
7930;BME280;4010;42.698;23.124;2023-02-11T08:44:25;118349.16;;;-140.64;53.93
7930;BME280;4010;42.698;23.124;2023-02-11T08:46:52;118349.16;;;-140.64;53.80
7930;BME280;4010;42.698;23.124;2023-02-11T08:49:19;118349.16;;;-140.64;54.09
7930;BME280;4010;42.698;23.124;2023-02-11T08:51:47;118349.16;;;-140.64;53.52
7930;BME280;4010;42.698;23.124;2023-02-11T08:54:14;118349.16;;;-140.64;53.37
7930;BME280;4010;42.698;23.124;2023-02-11T08:56:41;118349.16;;;-140.64;53.54
7930;BME280;4010;42.698;23.124;2023-02-11T08:59:11;118349.16;;;-140.64;52.80
7930;BME280;4010;42.698;23.124;2023-02-11T09:01:38;118349.16;;;-140.64;52.26
7930;BME280;4010;42.698;23.124;2023-02-11T09:04:05;118349.16;;;-140.64;54.02
7930;BME280;4010;42.698;23.124;2023-02-11T09:06:32;118349.16;;;-140.64;50.24
7930;BME280;4010;42.698;23.124;2023-02-11T09:08:58;118349.16;;;-140.64;50.83
7930;BME280;4010;42.698;23.124;2023-02-11T09:11:27;118349.16;;;-140.64;49.93
7930;BME280;4010;42.698;23.124;2023-02-11T09:13:54;118349.16;;;-140.64;51.54
7930;BME280;4010;42.698;23.124;2023-02-11T09:16:24;118349.16;;;-140.64;53.40
7930;BME280;4010;42.698;23.124;2023-02-11T09:18:51;118349.16;;;-140.64;51.93
7930;BME280;4010;42.698;23.124;2023-02-11T09:21:18;118349.16;;;-140.64;51.96
7930;BME280;4010;42.698;23.124;2023-02-11T09:23:45;118349.16;;;-140.64;52.18
7930;BME280;4010;42.698;23.124;2023-02-11T09:26:14;118349.16;;;-140.64;51.64
7930;BME280;4010;42.698;23.124;2023-02-11T09:28:41;118349.16;;;-140.64;50.86
7930;BME280;4010;42.698;23.124;2023-02-11T09:31:14;118349.16;;;-140.64;51.19
7930;BME280;4010;42.698;23.124;2023-02-11T09:33:46;118349.16;;;-140.64;51.41
7930;BME280;4010;42.698;23.124;2023-02-11T09:36:15;118349.16;;;-140.64;52.52
7930;BME280;4010;42.698;23.124;2023-02-11T09:38:42;118349.16;;;-140.64;53.05
7930;BME280;4010;42.698;23.124;2023-02-11T09:41:24;118349.16;;;-140.64;51.98
7930;BME280;4010;42.698;23.124;2023-02-11T09:43:54;118349.16;;;-140.64;52.59
7930;BME280;4010;42.698;23.124;2023-02-11T09:46:23;118349.16;;;-140.64;53.34
7930;BME280;4010;42.698;23.124;2023-02-11T09:48:53;118349.16;;;-140.64;53.51
7930;BME280;4010;42.698;23.124;2023-02-11T09:51:31;118349.16;;;-140.64;53.53
7930;BME280;4010;42.698;23.124;2023-02-11T09:54:04;118349.16;;;-140.64;53.49
7930;BME280;4010;42.698;23.124;2023-02-11T09:56:32;118349.16;;;-140.64;55.24
7930;BME280;4010;42.698;23.124;2023-02-11T09:58:59;118349.16;;;-140.64;51.94
7930;BME280;4010;42.698;23.124;2023-02-11T10:01:31;118349.16;;;-140.64;52.57
7930;BME280;4010;42.698;23.124;2023-02-11T10:04:04;118349.16;;;-140.64;51.06
7930;BME280;4010;42.698;23.124;2023-02-11T10:06:39;118349.16;;;-140.64;50.97
7930;BME280;4010;42.698;23.124;2023-02-11T10:12:06;118349.16;;;-140.64;51.17
7930;BME280;4010;42.698;23.124;2023-02-11T10:14:49;118349.16;;;-140.64;51.78
7930;BME280;4010;42.698;23.124;2023-02-11T10:17:24;118349.16;;;-140.64;51.23
7930;BME280;4010;42.698;23.124;2023-02-11T10:20:05;118349.16;;;-140.64;50.13
7930;BME280;4010;42.698;23.124;2023-02-11T10:22:36;118349.16;;;-140.64;50.74
7930;BME280;4010;42.698;23.124;2023-02-11T10:25:17;118349.16;;;-140.64;50.83
7930;BME280;4010;42.698;23.124;2023-02-11T10:27:46;118349.16;;;-140.64;49.82
7930;BME280;4010;42.698;23.124;2023-02-11T10:30:20;118349.16;;;-140.64;51.25
7930;BME280;4010;42.698;23.124;2023-02-11T10:32:51;118349.16;;;-140.64;50.02
7930;BME280;4010;42.698;23.124;2023-02-11T10:35:22;118349.16;;;-140.64;49.73
7930;BME280;4010;42.698;23.124;2023-02-11T10:37:52;118349.16;;;-140.64;49.71
7930;BME280;4010;42.698;23.124;2023-02-11T10:40:21;118349.16;;;-140.64;50.39
7930;BME280;4010;42.698;23.124;2023-02-11T10:42:50;118349.16;;;-140.64;50.45
7930;BME280;4010;42.698;23.124;2023-02-11T10:45:22;118349.16;;;-140.64;50.24
7930;BME280;4010;42.698;23.124;2023-02-11T10:47:50;118349.16;;;-140.64;49.32
7930;BME280;4010;42.698;23.124;2023-02-11T10:50:23;118349.16;;;-140.64;49.53
7930;BME280;4010;42.698;23.124;2023-02-11T10:52:50;118349.16;;;-140.64;48.78
7930;BME280;4010;42.698;23.124;2023-02-11T10:55:18;118349.16;;;-140.64;47.13
7930;BME280;4010;42.698;23.124;2023-02-11T10:57:52;118349.16;;;-140.64;47.67
7930;BME280;4010;42.698;23.124;2023-02-11T11:00:28;118349.16;;;-140.64;46.59
7930;BME280;4010;42.698;23.124;2023-02-11T11:02:59;118349.16;;;-140.64;45.32
7930;BME280;4010;42.698;23.124;2023-02-11T11:05:34;118349.16;;;-140.64;45.36
7930;BME280;4010;42.698;23.124;2023-02-11T11:08:03;118349.16;;;-140.64;45.87
7930;BME280;4010;42.698;23.124;2023-02-11T11:10:36;118349.16;;;-140.64;47.24
7930;BME280;4010;42.698;23.124;2023-02-11T11:13:23;118349.16;;;-140.64;46.27
7930;BME280;4010;42.698;23.124;2023-02-11T11:18:51;118349.16;;;-140.64;44.86
7930;BME280;4010;42.698;23.124;2023-02-11T11:21:22;118349.16;;;-140.64;46.12
7930;BME280;4010;42.698;23.124;2023-02-11T11:23:52;118349.16;;;-140.64;43.95
7930;BME280;4010;42.698;23.124;2023-02-11T11:26:20;118349.16;;;-140.64;42.71
7930;BME280;4010;42.698;23.124;2023-02-11T11:28:56;118349.16;;;-140.64;42.18
7930;BME280;4010;42.698;23.124;2023-02-11T11:31:27;118349.16;;;-140.64;40.88
7930;BME280;4010;42.698;23.124;2023-02-11T11:33:57;118349.16;;;-140.64;40.15
7930;BME280;4010;42.698;23.124;2023-02-11T11:36:35;118349.16;;;-140.64;39.71
7930;BME280;4010;42.698;23.124;2023-02-11T11:39:17;118349.16;;;-140.64;39.79
7930;BME280;4010;42.698;23.124;2023-02-11T11:41:50;118349.16;;;-140.64;41.15
7930;BME280;4010;42.698;23.124;2023-02-11T11:44:26;118349.16;;;-140.64;39.31
7930;BME280;4010;42.698;23.124;2023-02-11T11:47:18;118349.16;;;-140.64;44.26
7930;BME280;4010;42.698;23.124;2023-02-11T11:49:50;118349.16;;;-140.64;43.70
7930;BME280;4010;42.698;23.124;2023-02-11T11:52:32;118349.16;;;-140.64;44.15
7930;BME280;4010;42.698;23.124;2023-02-11T11:55:05;118349.16;;;-140.64;44.50
7930;BME280;4010;42.698;23.124;2023-02-11T11:57:36;118349.16;;;-140.64;43.56
7930;BME280;4010;42.698;23.124;2023-02-11T12:00:05;118349.16;;;-140.64;44.42
7930;BME280;4010;42.698;23.124;2023-02-11T12:06:10;118349.16;;;-140.64;42.83
7930;BME280;4010;42.698;23.124;2023-02-11T12:08:55;118349.16;;;-140.64;41.81
7930;BME280;4010;42.698;23.124;2023-02-11T12:11:32;118349.16;;;-140.64;43.38
7930;BME280;4010;42.698;23.124;2023-02-11T12:14:11;118349.16;;;-140.64;42.98
7930;BME280;4010;42.698;23.124;2023-02-11T12:16:51;118349.16;;;-140.64;41.96
7930;BME280;4010;42.698;23.124;2023-02-11T12:19:58;118349.16;;;-140.64;42.34
7930;BME280;4010;42.698;23.124;2023-02-11T12:22:37;118349.16;;;-140.64;41.15
7930;BME280;4010;42.698;23.124;2023-02-11T12:25:24;118349.16;;;-140.64;41.75
7930;BME280;4010;42.698;23.124;2023-02-11T12:27:59;118349.16;;;-140.64;43.09
7930;BME280;4010;42.698;23.124;2023-02-11T12:30:53;118349.16;;;-140.64;41.73
7930;BME280;4010;42.698;23.124;2023-02-11T12:33:33;118349.16;;;-140.64;41.95
7930;BME280;4010;42.698;23.124;2023-02-11T12:36:07;118349.16;;;-140.64;39.73
7930;BME280;4010;42.698;23.124;2023-02-11T12:38:49;118349.16;;;-140.64;37.30
7930;BME280;4010;42.698;23.124;2023-02-11T12:41:32;118349.16;;;-140.64;36.97
7930;BME280;4010;42.698;23.124;2023-02-11T12:44:26;118349.16;;;-140.64;37.64
7930;BME280;4010;42.698;23.124;2023-02-11T12:47:07;118349.16;;;-140.64;38.70
7930;BME280;4010;42.698;23.124;2023-02-11T12:49:52;118349.16;;;-140.64;39.10
7930;BME280;4010;42.698;23.124;2023-02-11T12:52:32;118349.16;;;-140.64;35.84
7930;BME280;4010;42.698;23.124;2023-02-11T12:55:08;118349.16;;;-140.64;36.53
7930;BME280;4010;42.698;23.124;2023-02-11T12:57:40;118349.16;;;-140.64;36.00
7930;BME280;4010;42.698;23.124;2023-02-11T13:00:14;118349.16;;;-140.64;36.08
7930;BME280;4010;42.698;23.124;2023-02-11T13:02:48;118349.16;;;-140.64;37.64
7930;BME280;4010;42.698;23.124;2023-02-11T13:05:24;118349.16;;;-140.64;37.25
7930;BME280;4010;42.698;23.124;2023-02-11T13:07:55;118349.16;;;-140.64;38.39
7930;BME280;4010;42.698;23.124;2023-02-11T13:10:29;118349.16;;;-140.64;37.42
7930;BME280;4010;42.698;23.124;2023-02-11T13:13:01;118349.16;;;-140.64;37.06
7930;BME280;4010;42.698;23.124;2023-02-11T13:15:47;118349.16;;;-140.64;37.84
7930;BME280;4010;42.698;23.124;2023-02-11T13:18:26;118349.16;;;-140.64;35.98